Time;durP1;ratioP1;P1;durP2;ratioP2;P2;SDS_P1;SDS_P2;PMS_P1;PMS_P2;Temp;Humidity;BMP_temperature;BMP_pressure;BME280_temperature;BME280_humidity;BME280_pressure;Samples;Min_cycle;Max_cycle;Signal;HPM_P1;HPM_P2
2021/05/30 00:01:50;;;;;;;7.18;4.35;;;;;;;12.87;63.91;101634.72;4969346;28;20023;-68
2021/05/30 00:04:16;;;;;;;7.45;4.63;;;;;;;12.88;63.95;101629.50;4986958;28;20026;-67
2021/05/30 00:06:42;;;;;;;8.38;4.70;;;;;;;12.87;64.03;101630.38;4986720;28;20027;-67
2021/05/30 00:09:07;;;;;;;7.80;4.93;;;;;;;12.86;63.98;101631.22;4985875;28;20162;-67
2021/05/30 00:11:34;;;;;;;6.25;4.50;;;;;;;12.85;63.88;101626.00;4986644;28;20428;-69
2021/05/30 00:14:00;;;;;;;7.97;5.00;;;;;;;12.87;63.78;101635.59;4969097;28;20042;-68
2021/05/30 00:16:26;;;;;;;9.57;5.40;;;;;;;12.89;63.80;101630.38;4986891;28;20027;-67
2021/05/30 00:18:51;;;;;;;9.38;5.10;;;;;;;12.88;64.01;101634.72;4969346;28;20081;-67
2021/05/30 00:21:16;;;;;;;10.15;5.05;;;;;;;12.87;64.06;101626.88;4986542;28;20030;-67
2021/05/30 00:23:42;;;;;;;7.72;5.35;;;;;;;12.94;63.98;101641.66;4986588;28;20081;-68
2021/05/30 00:26:07;;;;;;;8.43;4.55;;;;;;;12.96;63.62;101644.25;4986619;28;20026;-67
2021/05/30 00:28:32;;;;;;;7.07;3.88;;;;;;;12.98;63.41;101642.53;4986386;28;20526;-68
2021/05/30 00:30:58;;;;;;;9.32;4.40;;;;;;;12.96;63.17;101637.31;4986594;28;20038;-67
2021/05/30 00:33:23;;;;;;;9.35;4.60;;;;;;;12.97;63.05;101641.66;4986466;28;20050;-67
2021/05/30 00:35:49;;;;;;;5.72;4.00;;;;;;;13.01;62.99;101637.31;4986491;28;20109;-68
2021/05/30 00:38:14;;;;;;;6.40;3.70;;;;;;;13.01;62.85;101634.72;4986597;28;20731;-68
2021/05/30 00:40:41;;;;;;;8.15;4.03;;;;;;;13.02;62.55;101632.13;4986171;28;20443;-68
2021/05/30 00:43:06;;;;;;;6.93;4.40;;;;;;;13.07;62.32;101633.84;4985623;28;20035;-68
2021/05/30 00:45:32;;;;;;;8.80;4.38;;;;;;;13.06;62.15;101630.38;4985370;28;20034;-69
2021/05/30 00:47:57;;;;;;;6.20;3.90;;;;;;;13.08;61.60;101630.38;4985268;28;20445;-68
2021/05/30 00:50:22;;;;;;;5.78;3.47;;;;;;;13.13;61.25;101634.72;4985823;28;20058;-68
2021/05/30 00:52:48;;;;;;;5.70;3.70;;;;;;;13.19;60.82;101640.81;4968976;28;20015;-68
2021/05/30 00:55:14;;;;;;;5.45;4.15;;;;;;;13.22;60.59;101641.69;4985696;28;20566;-68
2021/05/30 00:57:39;;;;;;;5.78;4.25;;;;;;;13.25;60.77;101636.47;4985787;28;20050;-68
2021/05/30 01:00:08;;;;;;;6.10;4.10;;;;;;;13.29;60.60;101646.91;4985913;28;20434;-68
2021/05/30 01:02:33;;;;;;;6.43;4.00;;;;;;;13.27;60.34;101641.69;4968496;28;20065;-68
2021/05/30 01:04:59;;;;;;;7.72;3.90;;;;;;;13.25;60.10;101646.91;4985973;28;20023;-68
2021/05/30 01:07:24;;;;;;;6.15;3.70;;;;;;;13.24;59.57;101639.09;4986122;28;20112;-67
2021/05/30 01:09:51;;;;;;;7.38;3.60;;;;;;;13.35;58.84;101644.31;4985507;28;20023;-66
2021/05/30 01:12:19;;;;;;;5.70;3.50;;;;;;;13.39;58.83;101646.03;4968404;28;20054;-67
2021/05/30 01:14:44;;;;;;;6.97;4.38;;;;;;;13.41;58.33;101649.53;4985555;28;20023;-69
2021/05/30 01:17:10;;;;;;;6.00;3.53;;;;;;;13.40;58.28;101650.41;4985777;28;20087;-67
2021/05/30 01:19:38;;;;;;;5.78;3.42;;;;;;;13.41;57.92;101657.34;4968414;28;20050;-69
2021/05/30 01:22:07;;;;;;;8.80;4.30;;;;;;;13.42;57.98;101660.84;4985621;28;20030;-68
2021/05/30 01:24:37;;;;;;;7.80;3.90;;;;;;;13.37;58.08;101660.84;4985649;28;20027;-69
2021/05/30 01:27:04;;;;;;;9.02;4.30;;;;;;;13.36;57.83;101654.75;4985397;28;20022;-67
2021/05/30 01:29:29;;;;;;;4.35;3.05;;;;;;;13.36;57.54;101659.06;4967889;28;20117;-68
2021/05/30 01:31:55;;;;;;;5.07;4.07;;;;;;;13.37;57.49;101663.44;4967952;28;20356;-68
2021/05/30 01:34:20;;;;;;;6.25;3.53;;;;;;;13.35;57.15;101653.00;4985653;28;20094;-67
2021/05/30 01:36:46;;;;;;;4.45;3.70;;;;;;;13.39;56.87;101665.16;4968025;28;20403;-67
2021/05/30 01:39:11;;;;;;;8.90;3.45;;;;;;;13.42;56.47;101658.22;4967874;28;20046;-67
2021/05/30 01:41:36;;;;;;;5.10;3.38;;;;;;;13.39;56.43;101644.31;4985017;28;20058;-67
2021/05/30 01:44:02;;;;;;;4.60;3.20;;;;;;;13.50;56.07;101661.66;4967644;28;20034;-67
2021/05/30 01:46:27;;;;;;;5.50;3.28;;;;;;;13.50;55.56;101659.06;4967695;28;20023;-67
2021/05/30 01:48:53;;;;;;;4.07;3.08;;;;;;;13.54;55.24;101662.59;4985146;28;20038;-67
2021/05/30 01:51:18;;;;;;;6.22;3.00;;;;;;;13.55;55.04;101651.28;4985118;28;20437;-67
2021/05/30 01:53:52;;;;;;;5.22;2.90;;;;;;;13.61;54.78;101656.50;4985153;28;20102;-67
2021/05/30 01:59:03;;;;;;;4.32;3.10;;;;;;;13.69;54.22;101673.00;4984725;28;20058;-67
2021/05/30 02:01:30;;;;;;;3.45;2.95;;;;;;;13.70;54.16;101663.44;4984639;28;20037;-67
2021/05/30 02:03:56;;;;;;;3.88;3.05;;;;;;;13.73;54.03;101663.44;4985058;28;20019;-68
2021/05/30 02:06:22;;;;;;;6.82;3.30;;;;;;;13.68;53.88;101654.72;4984985;28;20404;-67
2021/05/30 02:08:48;;;;;;;5.53;3.15;;;;;;;13.68;53.95;101659.97;4984799;28;20030;-68
2021/05/30 02:11:13;;;;;;;5.00;2.95;;;;;;;13.63;53.85;101662.56;4984561;28;20026;-68
2021/05/30 02:13:39;;;;;;;3.72;3.17;;;;;;;13.64;53.68;101661.72;4984427;28;20027;-68
2021/05/30 02:16:05;;;;;;;5.15;3.70;;;;;;;13.67;53.63;101666.06;4967246;28;20054;-68
2021/05/30 02:18:31;;;;;;;3.88;2.90;;;;;;;13.69;53.59;101670.38;4984416;28;20034;-67
2021/05/30 02:20:56;;;;;;;5.05;3.03;;;;;;;13.67;53.40;101663.44;4984130;28;20023;-68
2021/05/30 02:23:21;;;;;;;4.50;3.15;;;;;;;13.68;53.57;101668.66;4984395;28;20023;-68
2021/05/30 02:25:47;;;;;;;4.45;3.08;;;;;;;13.61;53.46;101654.75;4984264;28;20034;-68
2021/05/30 02:28:12;;;;;;;4.43;2.67;;;;;;;13.57;53.33;101663.47;4984078;28;20022;-67
2021/05/30 02:30:38;;;;;;;6.68;3.03;;;;;;;13.59;53.50;101666.06;4984239;28;20073;-67
2021/05/30 02:33:04;;;;;;;4.68;3.28;;;;;;;13.61;53.15;101666.94;4985799;28;20037;-67
2021/05/30 02:35:30;;;;;;;3.78;2.58;;;;;;;13.65;53.25;101668.66;4970665;28;20030;-67
2021/05/30 02:37:55;;;;;;;4.85;3.15;;;;;;;13.74;53.09;101675.59;4988392;28;20438;-67
2021/05/30 02:40:21;;;;;;;4.80;3.22;;;;;;;13.73;53.00;101673.88;4987966;28;20054;-67
2021/05/30 02:42:46;;;;;;;4.45;3.58;;;;;;;13.71;53.10;101681.72;4987853;28;20195;-67
2021/05/30 02:45:12;;;;;;;3.90;3.30;;;;;;;13.65;53.25;101680.84;4988073;28;20033;-67
2021/05/30 02:47:37;;;;;;;4.25;2.88;;;;;;;13.57;53.46;101679.13;4987953;28;20097;-67
2021/05/30 02:50:04;;;;;;;6.43;3.13;;;;;;;13.52;53.50;101675.63;4987882;28;20031;-67
2021/05/30 02:52:30;;;;;;;7.65;3.63;;;;;;;13.55;53.34;101675.63;4987905;28;20014;-67
2021/05/30 02:54:55;;;;;;;4.35;2.97;;;;;;;13.62;53.21;101677.38;4987649;28;20490;-67
2021/05/30 02:57:21;;;;;;;6.95;3.70;;;;;;;13.67;53.47;101674.75;4987842;28;20438;-68
2021/05/30 02:59:46;;;;;;;5.22;3.05;;;;;;;13.67;53.30;101676.50;4970191;28;20026;-68
2021/05/30 03:02:11;;;;;;;5.30;3.10;;;;;;;13.74;53.17;101680.81;4970251;28;20022;-67
2021/05/30 03:04:37;;;;;;;8.40;3.55;;;;;;;13.82;53.68;101684.28;4987396;28;20023;-67
2021/05/30 03:07:02;;;;;;;5.30;3.78;;;;;;;13.98;54.05;101686.88;4987618;28;20027;-67
2021/05/30 03:09:28;;;;;;;7.70;3.47;;;;;;;14.18;54.46;101688.56;4987582;28;20463;-67
2021/05/30 03:11:53;;;;;;;3.97;3.33;;;;;;;14.55;54.10;101684.97;4970306;28;20422;-68
2021/05/30 03:14:19;;;;;;;4.53;3.50;;;;;;;14.89;53.34;101686.56;4987233;28;20041;-67
2021/05/30 03:16:44;;;;;;;4.63;3.88;;;;;;;15.15;52.92;101685.50;4987553;28;20085;-67
2021/05/30 03:19:10;;;;;;;6.25;3.88;;;;;;;15.17;52.44;101673.31;4987515;28;20272;-67
2021/05/30 03:21:36;;;;;;;6.30;3.53;;;;;;;15.29;51.74;101698.53;4987064;28;20050;-68
2021/05/30 03:24:03;;;;;;;6.28;4.25;;;;;;;15.22;51.81;101705.53;4987419;28;20450;-67
2021/05/30 03:26:28;;;;;;;3.85;3.35;;;;;;;15.19;52.05;101702.94;4987297;28;20031;-67
2021/05/30 03:28:54;;;;;;;6.40;3.70;;;;;;;15.27;52.33;101701.13;4969600;28;20034;-67
2021/05/30 03:31:19;;;;;;;4.57;3.72;;;;;;;15.59;52.46;101714.84;4987054;28;20046;-67
2021/05/30 03:33:45;;;;;;;5.43;3.75;;;;;;;15.92;51.41;101714.53;4987334;28;20023;-67
2021/05/30 03:36:17;;;;;;;4.97;3.75;;;;;;;16.16;51.13;101715.22;4987086;28;20041;-68
2021/05/30 03:38:43;;;;;;;4.43;3.97;;;;;;;16.52;51.24;101710.41;4987158;28;20023;-67
2021/05/30 03:41:12;;;;;;;7.43;4.10;;;;;;;16.95;49.75;101708.97;4987056;28;20109;-68
2021/05/30 03:43:40;;;;;;;7.57;4.25;;;;;;;17.16;49.46;101712.19;4968858;28;20023;-67
2021/05/30 03:46:05;;;;;;;5.72;4.28;;;;;;;17.38;49.08;101703.97;4968880;28;20023;-66
2021/05/30 03:48:31;;;;;;;4.53;3.90;;;;;;;17.69;48.80;101695.59;4987087;28;20087;-67
2021/05/30 03:50:56;;;;;;;5.63;3.60;;;;;;;18.11;48.09;101701.84;4986896;28;20030;-67
2021/05/30 03:53:22;;;;;;;4.45;3.83;;;;;;;18.37;46.69;101702.25;4986759;28;20023;-67
2021/05/30 03:55:48;;;;;;;6.22;4.05;;;;;;;18.35;45.78;101709.28;4986386;28;20078;-68
2021/05/30 03:58:14;;;;;;;5.18;3.65;;;;;;;18.17;45.99;101708.75;4986449;28;20081;-67
2021/05/30 04:00:41;;;;;;;6.88;4.20;;;;;;;18.06;46.17;101725.59;4986546;28;20034;-68
2021/05/30 04:03:06;;;;;;;3.83;3.42;;;;;;;17.96;46.27;101716.13;4986812;28;20037;-68
2021/05/30 04:05:32;;;;;;;6.13;3.83;;;;;;;17.98;46.57;101724.84;4986509;28;20035;-68
2021/05/30 04:07:58;;;;;;;4.95;4.40;;;;;;;18.17;47.33;101727.16;4986569;28;20031;-68
2021/05/30 04:10:24;;;;;;;8.20;4.38;;;;;;;18.82;46.99;101732.84;4986539;28;20034;-68
2021/05/30 04:12:49;;;;;;;8.52;3.80;;;;;;;19.65;46.04;101730.97;4968902;28;20049;-68
2021/05/30 04:15:15;;;;;;;6.18;3.80;;;;;;;20.66;44.81;101730.88;4986669;28;20027;-68
2021/05/30 04:17:41;;;;;;;7.60;3.95;;;;;;;21.59;42.81;101726.22;4986333;28;20031;-68
2021/05/30 04:20:08;;;;;;;8.45;4.68;;;;;;;22.21;41.19;101717.06;4968956;28;20034;-67
2021/05/30 04:22:35;;;;;;;7.00;3.65;;;;;;;22.97;40.25;101716.81;4986301;28;20034;-67
2021/05/30 04:25:00;;;;;;;5.72;3.33;;;;;;;23.60;38.90;101715.19;4968885;28;20475;-68
2021/05/30 04:27:26;;;;;;;4.68;3.75;;;;;;;24.22;37.58;101727.53;4986318;28;20027;-67
2021/05/30 04:29:51;;;;;;;6.63;3.55;;;;;;;24.79;36.88;101724.97;4986056;28;20022;-68
2021/05/30 04:32:16;;;;;;;3.67;3.35;;;;;;;25.17;35.47;101719.63;4986211;28;20046;-68
2021/05/30 04:34:42;;;;;;;4.80;3.67;;;;;;;25.46;34.74;101719.94;4986100;28;20467;-68
2021/05/30 04:37:07;;;;;;;3.78;3.35;;;;;;;25.39;34.11;101723.84;4985941;28;20023;-68
2021/05/30 04:39:32;;;;;;;7.60;3.53;;;;;;;25.49;33.83;101719.81;4985910;28;20023;-68
2021/05/30 04:41:59;;;;;;;6.60;3.60;;;;;;;25.74;33.34;101715.03;4985997;28;20027;-67
2021/05/30 04:44:25;;;;;;;5.65;3.55;;;;;;;26.16;32.91;101717.28;4968504;28;20105;-68
2021/05/30 04:46:51;;;;;;;6.57;3.72;;;;;;;26.28;32.50;101718.44;4986037;28;20026;-68
2021/05/30 04:49:16;;;;;;;4.30;3.13;;;;;;;26.73;32.49;101724.84;4985642;28;20054;-68
2021/05/30 04:51:42;;;;;;;4.40;3.38;;;;;;;27.29;31.48;101725.28;4968286;28;20022;-67
2021/05/30 04:54:07;;;;;;;6.40;3.42;;;;;;;27.82;30.72;101732.84;4985634;28;20034;-67
2021/05/30 04:56:32;;;;;;;8.55;3.55;;;;;;;28.18;30.27;101730.69;4985154;28;20051;-67
2021/05/30 04:58:58;;;;;;;5.32;3.90;;;;;;;28.51;29.45;101732.19;4967967;28;20026;-67
2021/05/30 05:01:23;;;;;;;5.55;4.45;;;;;;;28.64;29.50;101729.59;4985346;28;20026;-67
2021/05/30 05:03:50;;;;;;;5.55;4.05;;;;;;;28.83;28.67;101725.69;4985558;28;20081;-67
2021/05/30 05:06:16;;;;;;;4.75;3.90;;;;;;;28.99;28.16;101719.38;4985498;28;20050;-67
2021/05/30 05:08:41;;;;;;;4.93;3.97;;;;;;;29.08;28.10;101718.75;4985398;28;20030;-67
2021/05/30 05:11:08;;;;;;;4.60;3.67;;;;;;;28.82;27.97;101729.31;4985249;28;20129;-67
2021/05/30 05:13:33;;;;;;;4.63;3.90;;;;;;;29.04;27.79;101725.28;4985123;28;20034;-69
2021/05/30 05:15:59;;;;;;;7.68;3.70;;;;;;;29.13;27.36;101732.66;4985490;28;20026;-68
2021/05/30 05:18:26;;;;;;;4.65;3.47;;;;;;;29.38;27.21;101733.69;4985198;28;20023;-68
2021/05/30 05:20:51;;;;;;;4.38;3.45;;;;;;;29.61;27.23;101728.59;4985259;28;20027;-68
2021/05/30 05:23:19;;;;;;;4.75;3.60;;;;;;;29.83;26.74;101734.25;4985245;28;20053;-68
2021/05/30 05:25:52;;;;;;;6.55;3.55;;;;;;;30.30;26.21;101739.94;4985132;28;20475;-69
2021/05/30 05:28:18;;;;;;;3.85;3.40;;;;;;;30.44;25.23;101744.28;4984921;28;20538;-68
2021/05/30 05:30:44;;;;;;;3.78;3.38;;;;;;;30.30;25.17;101740.78;4985056;28;20038;-68
2021/05/30 05:33:10;;;;;;;5.53;3.42;;;;;;;30.70;24.69;101730.81;4984908;28;20121;-69
2021/05/30 05:35:35;;;;;;;4.72;3.53;;;;;;;30.76;24.80;101735.72;4967398;28;20463;-69
2021/05/30 05:38:01;;;;;;;4.75;3.75;;;;;;;31.13;24.24;101747.34;4984799;28;20061;-69
2021/05/30 05:40:28;;;;;;;6.95;4.20;;;;;;;31.09;23.37;101727.97;4984946;28;20072;-69
2021/05/30 05:42:54;;;;;;;3.92;3.10;;;;;;;30.99;23.85;101735.84;4984656;28;20061;-69
2021/05/30 05:45:22;;;;;;;4.88;3.30;;;;;;;30.78;22.89;101732.91;4985198;28;20488;-69
2021/05/30 05:47:47;;;;;;;4.32;3.22;;;;;;;30.04;24.04;101739.94;4985329;28;20054;-69
2021/05/30 05:50:15;;;;;;;5.13;3.67;;;;;;;30.32;24.40;101734.47;4985214;28;20045;-69
2021/05/30 05:52:41;;;;;;;6.30;3.30;;;;;;;30.66;23.88;101740.91;4967222;28;20026;-69
2021/05/30 05:55:07;;;;;;;5.15;3.10;;;;;;;30.76;23.86;101734.84;4967093;28;20154;-69
2021/05/30 05:57:34;;;;;;;5.45;3.42;;;;;;;31.01;22.79;101736.59;4984741;28;20038;-69
2021/05/30 05:59:59;;;;;;;2.90;2.67;;;;;;;30.83;22.76;101743.34;4984408;28;20033;-69
2021/05/30 06:02:25;;;;;;;4.60;2.92;;;;;;;30.73;22.31;101745.81;4967078;28;20071;-69
2021/05/30 06:04:51;;;;;;;3.47;2.67;;;;;;;30.76;22.28;101741.06;4967058;28;20058;-70
2021/05/30 06:07:16;;;;;;;4.93;3.03;;;;;;;30.76;22.20;101740.22;4984044;28;20034;-69
2021/05/30 06:09:42;;;;;;;3.28;2.78;;;;;;;30.52;22.56;101735.69;4984349;28;20046;-69
2021/05/30 06:12:08;;;;;;;5.47;3.90;;;;;;;30.50;22.26;101737.63;4984324;28;20055;-69
2021/05/30 06:14:33;;;;;;;4.53;3.40;;;;;;;30.14;23.27;101740.16;4984073;28;20038;-69
2021/05/30 06:16:59;;;;;;;5.50;3.13;;;;;;;30.17;23.26;101740.78;4984236;28;20030;-69
2021/05/30 06:19:26;;;;;;;5.15;3.15;;;;;;;30.61;22.53;101751.09;4984222;28;20033;-69
2021/05/30 06:21:51;;;;;;;6.50;3.53;;;;;;;30.44;21.84;101738.94;4984000;28;20023;-68
2021/05/30 06:24:17;;;;;;;4.53;3.72;;;;;;;30.12;22.14;101748.28;4984399;28;20093;-68
2021/05/30 06:26:42;;;;;;;4.32;2.97;;;;;;;29.86;22.07;101750.97;4984080;28;20057;-69
2021/05/30 06:29:07;;;;;;;3.38;2.70;;;;;;;29.94;22.49;101745.94;4984123;28;20035;-68
2021/05/30 06:31:33;;;;;;;4.30;2.75;;;;;;;30.24;22.77;101751.09;4984123;28;20027;-68
2021/05/30 06:33:58;;;;;;;3.63;2.72;;;;;;;30.67;22.41;101756.00;4984026;28;20035;-69
2021/05/30 06:36:24;;;;;;;4.88;2.90;;;;;;;30.91;21.70;101757.84;4984022;28;20058;-69
2021/05/30 06:38:49;;;;;;;7.20;3.17;;;;;;;31.19;21.66;101746.88;4984110;28;20030;-70
2021/05/30 06:41:14;;;;;;;3.85;2.95;;;;;;;31.45;21.48;101748.59;4983858;28;20027;-69
2021/05/30 06:43:40;;;;;;;4.78;2.88;;;;;;;31.62;21.18;101750.81;4983875;28;20030;-68
2021/05/30 06:46:05;;;;;;;5.03;2.63;;;;;;;31.56;21.04;101742.38;4984082;28;20081;-70
2021/05/30 06:48:30;;;;;;;4.45;2.55;;;;;;;31.76;20.48;101743.50;4966356;28;20033;-69
2021/05/30 06:53:40;;;;;;;6.85;2.63;;;;;;;32.02;20.15;101746.84;4984342;28;20030;-71
2021/05/30 06:56:05;;;;;;;4.20;2.83;;;;;;;31.94;19.88;101743.03;4966203;28;20059;-70
2021/05/30 06:58:31;;;;;;;4.28;2.40;;;;;;;31.78;20.22;101745.09;4983641;28;20042;-69
2021/05/30 07:00:56;;;;;;;3.83;2.22;;;;;;;31.94;19.31;101746.56;4983849;28;20452;-69
2021/05/30 07:03:22;;;;;;;3.85;2.00;;;;;;;31.77;19.09;101743.41;4966373;28;20019;-70
2021/05/30 07:05:47;;;;;;;3.95;2.40;;;;;;;31.61;18.49;101743.75;4983958;28;20027;-70
2021/05/30 07:08:13;;;;;;;2.67;1.83;;;;;;;31.49;18.88;101745.53;4984062;28;20085;-69
2021/05/30 07:10:38;;;;;;;2.60;2.03;;;;;;;31.73;18.82;101741.06;4966206;28;20054;-69
2021/05/30 07:13:03;;;;;;;3.30;2.25;;;;;;;32.03;18.56;101747.72;4966199;28;20015;-69
2021/05/30 07:15:29;;;;;;;4.72;2.47;;;;;;;32.42;18.27;101743.75;4983879;28;20022;-61
2021/05/30 07:17:55;;;;;;;4.53;2.22;;;;;;;32.82;17.90;101748.59;4983759;28;20448;-61
2021/05/30 07:20:21;;;;;;;3.50;2.17;;;;;;;32.85;18.13;101755.53;4987042;28;20081;-61
2021/05/30 07:22:47;;;;;;;3.60;2.10;;;;;;;32.97;18.25;101750.97;4969747;28;20019;-61
2021/05/30 07:25:12;;;;;;;4.32;2.22;;;;;;;33.35;17.38;101741.53;4987431;28;20027;-61
2021/05/30 07:27:39;;;;;;;3.30;2.30;;;;;;;33.29;17.42;101755.50;4987204;28;20022;-61
2021/05/30 07:30:07;;;;;;;2.92;2.15;;;;;;;33.19;18.10;101754.56;4987072;28;20034;-60
2021/05/30 07:32:32;;;;;;;2.83;2.00;;;;;;;32.89;17.74;101739.00;4987053;28;20018;-61
2021/05/30 07:34:58;;;;;;;5.22;2.10;;;;;;;33.07;17.40;101749.22;4987134;28;20022;-61
2021/05/30 07:37:23;;;;;;;2.58;1.98;;;;;;;32.98;17.48;101741.91;4986896;28;20176;-61
2021/05/30 07:39:48;;;;;;;3.50;2.00;;;;;;;32.96;17.89;101755.50;4969162;28;20031;-61
2021/05/30 07:42:14;;;;;;;3.85;2.22;;;;;;;33.00;17.94;101738.13;4986919;28;20027;-61
2021/05/30 07:44:39;;;;;;;3.78;2.05;;;;;;;33.38;17.52;101738.56;4986979;28;20027;-62
2021/05/30 07:47:05;;;;;;;3.92;2.20;;;;;;;33.86;17.23;101733.63;4987082;28;20023;-62
2021/05/30 07:49:31;;;;;;;3.13;2.05;;;;;;;34.01;16.27;101744.03;4986770;28;20069;-61
2021/05/30 07:51:57;;;;;;;2.00;1.80;;;;;;;34.22;16.63;101743.13;4986408;28;20499;-61
2021/05/30 07:54:23;;;;;;;2.10;1.60;;;;;;;34.22;14.96;101743.13;4986577;28;20451;-62
2021/05/30 07:56:49;;;;;;;3.47;2.00;;;;;;;34.25;15.69;101746.38;4986936;28;20081;-62
2021/05/30 07:59:14;;;;;;;5.88;1.95;;;;;;;34.40;15.83;101743.31;4986884;28;20027;-61
2021/05/30 08:01:39;;;;;;;3.70;1.83;;;;;;;34.67;15.29;101744.47;4987073;28;20495;-61
2021/05/30 08:04:05;;;;;;;3.35;1.80;;;;;;;34.81;14.82;101743.22;4987124;28;20093;-61
2021/05/30 08:06:31;;;;;;;3.13;2.08;;;;;;;34.86;14.49;101738.28;4969500;28;20022;-61
2021/05/30 08:08:57;;;;;;;3.20;2.25;;;;;;;34.96;14.68;101742.81;4987090;28;20027;-62
2021/05/30 08:11:24;;;;;;;2.58;1.80;;;;;;;34.97;14.32;101744.53;4986879;28;20027;-62
2021/05/30 08:13:49;;;;;;;1.77;1.50;;;;;;;35.10;14.98;101746.91;4986655;28;20075;-61
2021/05/30 08:16:15;;;;;;;3.58;1.60;;;;;;;35.22;14.77;101737.72;4987061;28;20053;-61
2021/05/30 08:18:40;;;;;;;2.70;1.77;;;;;;;35.43;14.50;101733.13;4986632;28;20030;-61
2021/05/30 08:21:05;;;;;;;5.35;2.00;;;;;;;35.60;14.16;101740.47;4986884;28;20027;-61
2021/05/30 08:23:31;;;;;;;3.13;1.63;;;;;;;35.84;14.83;101751.78;4986583;28;20478;-61
2021/05/30 08:25:56;;;;;;;2.83;1.85;;;;;;;35.93;13.82;101739.25;4986539;28;20042;-61
2021/05/30 08:28:21;;;;;;;3.28;1.65;;;;;;;35.80;13.62;101751.22;4968807;28;20027;-61
2021/05/30 08:30:47;;;;;;;5.03;2.08;;;;;;;35.74;14.57;101742.88;4985563;28;20034;-62
2021/05/30 08:33:12;;;;;;;2.42;1.60;;;;;;;35.80;14.04;101740.41;4986360;28;20023;-61
2021/05/30 08:35:38;;;;;;;4.60;2.42;;;;;;;35.87;14.48;101735.28;4968979;28;20085;-61
2021/05/30 08:38:03;;;;;;;5.90;2.90;;;;;;;35.72;15.87;101740.31;4986267;28;20033;-61
2021/05/30 08:40:28;;;;;;;3.92;2.92;;;;;;;35.59;16.59;101744.16;4986237;28;20019;-62
2021/05/30 08:42:54;;;;;;;4.47;2.95;;;;;;;35.40;17.03;101741.53;4985933;28;20019;-61
2021/05/30 08:45:20;;;;;;;4.97;3.20;;;;;;;34.97;17.63;101745.38;4986201;28;20026;-61
2021/05/30 08:47:46;;;;;;;4.55;2.85;;;;;;;34.68;17.84;101723.75;4985954;28;20034;-60
2021/05/30 08:50:12;;;;;;;3.60;2.65;;;;;;;34.80;18.08;101738.84;4985966;28;20195;-63
2021/05/30 08:52:38;;;;;;;4.03;2.85;;;;;;;34.83;18.13;101743.09;4985990;28;20022;-61
2021/05/30 08:55:04;;;;;;;3.53;2.85;;;;;;;34.96;17.92;101740.97;4985639;28;20070;-62
2021/05/30 08:57:30;;;;;;;3.42;2.40;;;;;;;35.24;17.93;101737.56;4985942;28;20035;-61
2021/05/30 08:59:57;;;;;;;4.32;3.20;;;;;;;35.26;17.57;101749.06;4985656;28;20023;-62
2021/05/30 09:02:24;;;;;;;3.67;2.80;;;;;;;35.15;17.86;101743.78;4985756;28;20034;-62
2021/05/30 09:04:54;;;;;;;6.13;2.60;;;;;;;34.96;17.53;101738.28;4985804;28;20033;-61
2021/05/30 09:07:38;;;;;;;5.03;3.05;;;;;;;35.05;16.94;101743.81;4985940;28;20147;-62
2021/05/30 09:10:07;;;;;;;3.08;2.53;;;;;;;35.02;17.04;101734.13;4985873;28;20026;-63
2021/05/30 09:12:39;;;;;;;3.20;2.65;;;;;;;34.99;17.13;101742.53;4985612;28;20033;-63
2021/05/30 09:15:27;;;;;;;4.43;2.35;;;;;;;35.11;16.42;101737.84;4985585;28;20019;-63
2021/05/30 09:18:12;;;;;;;3.60;2.47;;;;;;;34.87;16.42;101741.84;4985733;28;20022;-63
2021/05/30 09:20:52;;;;;;;7.03;2.90;;;;;;;34.85;16.31;101728.50;4985640;28;20027;-62
2021/05/30 09:23:37;;;;;;;5.00;2.75;;;;;;;34.84;15.63;101726.75;4985312;28;20082;-62
2021/05/30 09:26:13;;;;;;;4.22;2.53;;;;;;;34.75;15.99;101735.72;4985281;28;20027;-65
2021/05/30 09:28:41;;;;;;;5.28;2.05;;;;;;;34.87;15.69;101728.34;4984992;28;20134;-68
2021/05/30 09:31:07;;;;;;;6.15;2.67;;;;;;;34.79;15.80;101737.16;4985115;28;20092;-74
2021/05/30 09:33:34;;;;;;;4.00;2.10;;;;;;;34.60;15.65;101730.69;4967771;28;20023;-70
2021/05/30 09:36:04;;;;;;;2.65;2.08;;;;;;;34.35;15.80;101732.06;4985475;28;20027;-73
2021/05/30 09:38:35;;;;;;;4.00;2.10;;;;;;;34.17;15.79;101731.91;4985116;28;20022;-61
2021/05/30 09:41:03;;;;;;;;;;;;;;;34.20;15.70;101737.03;4985418;28;20050;-60
2021/05/30 09:43:35;;;;;;;3.15;2.20;;;;;;;34.22;15.78;101727.78;4984729;28;20212;-61
2021/05/30 09:46:09;;;;;;;3.63;2.22;;;;;;;34.37;15.84;101738.19;4985296;28;20022;-61
2021/05/30 09:48:41;;;;;;;5.50;2.10;;;;;;;34.51;15.17;101731.53;4984772;28;20063;-63
2021/05/30 09:51:34;;;;;;;5.90;1.90;;;;;;;34.45;14.56;101730.25;4985325;28;20023;-62
2021/05/30 09:54:14;;;;;;;5.38;2.00;;;;;;;34.31;15.04;101739.59;4985173;28;20085;-63
2021/05/30 09:56:53;;;;;;;6.90;2.03;;;;;;;34.42;15.21;101729.69;4984723;28;20059;-63
2021/05/30 09:59:23;;;;;;;2.65;2.20;;;;;;;34.60;14.70;101732.56;4984724;28;20470;-63
2021/05/30 10:01:58;;;;;;;2.35;2.00;;;;;;;34.47;15.17;101732.81;4984747;28;20474;-63
2021/05/30 10:04:34;;;;;;;2.72;2.30;;;;;;;34.62;14.43;101730.56;4984933;28;20030;-61
2021/05/30 10:07:01;;;;;;;4.30;2.30;;;;;;;34.51;14.65;101723.44;4984623;28;20030;-63
2021/05/30 10:09:28;;;;;;;3.08;1.58;;;;;;;34.47;15.15;101730.13;4984817;28;20027;-61
2021/05/30 10:11:56;;;;;;;4.90;1.80;;;;;;;34.82;15.24;101736.00;4984340;28;20147;-62
2021/05/30 10:14:22;;;;;;;2.42;1.60;;;;;;;35.08;14.89;101730.03;4984256;28;20097;-62
2021/05/30 10:16:48;;;;;;;3.97;1.77;;;;;;;35.27;14.23;101728.31;4984454;28;20054;-63
2021/05/30 10:19:21;;;;;;;4.93;2.33;;;;;;;35.15;14.84;101727.59;4984512;28;20023;-63
2021/05/30 10:21:50;;;;;;;3.70;2.38;;;;;;;34.77;15.04;101733.72;4984563;28;20019;-63
2021/05/30 10:24:17;;;;;;;3.92;2.00;;;;;;;34.53;15.70;101734.09;4984516;28;20041;-63
2021/05/30 10:26:43;;;;;;;2.10;1.70;;;;;;;34.45;15.64;101730.25;4984355;28;20077;-63
2021/05/30 10:29:18;;;;;;;2.80;1.70;;;;;;;34.17;15.72;101729.22;4984302;28;20031;-63
2021/05/30 10:31:46;;;;;;;1.80;1.38;;;;;;;33.82;15.39;101728.63;4984330;28;20098;-63
2021/05/30 10:34:20;;;;;;;6.10;2.22;;;;;;;33.61;15.54;101735.75;4984439;28;20023;-62
2021/05/30 10:36:54;;;;;;;2.28;1.60;;;;;;;33.49;15.59;101734.94;4966870;28;20494;-62
2021/05/30 10:39:29;;;;;;;4.32;1.83;;;;;;;33.37;15.35;101736.00;4984407;28;20031;-62
2021/05/30 10:42:17;;;;;;;3.83;1.75;;;;;;;32.92;15.79;101742.44;4983978;28;20027;-62
2021/05/30 10:44:59;;;;;;;3.20;2.03;;;;;;;32.35;17.58;101740.72;4984196;28;20043;-62
2021/05/30 10:47:43;;;;;;;3.17;2.22;;;;;;;32.12;19.97;101741.63;4984415;28;20122;-62
2021/05/30 10:50:12;;;;;;;4.20;2.88;;;;;;;31.63;20.82;101749.00;4984549;28;20057;-62
2021/05/30 10:52:40;;;;;;;3.97;2.38;;;;;;;31.21;21.88;101742.28;4984229;28;20157;-61
2021/05/30 10:55:08;;;;;;;6.22;2.40;;;;;;;30.66;21.11;101746.25;4987284;28;20043;-61
2021/05/30 10:57:42;;;;;;;3.13;2.10;;;;;;;29.78;21.73;101742.63;4988070;28;20037;-61
2021/05/30 11:00:19;;;;;;;2.90;2.10;;;;;;;29.04;22.79;101743.97;4987952;28;20026;-62
2021/05/30 11:03:04;;;;;;;3.55;2.40;;;;;;;28.45;23.88;101743.25;4987932;28;20098;-61
2021/05/30 11:05:44;;;;;;;6.05;2.88;;;;;;;27.76;25.24;101736.75;4988159;28;20019;-61
2021/05/30 11:08:29;;;;;;;3.63;2.90;;;;;;;27.04;26.31;101735.59;4988164;28;20034;-62
2021/05/30 11:11:25;;;;;;;3.70;2.50;;;;;;;26.40;27.64;101735.56;4987848;28;20023;-62
2021/05/30 11:13:52;;;;;;;3.20;2.90;;;;;;;25.84;28.65;101742.00;4987960;28;20019;-63
2021/05/30 11:16:20;;;;;;;3.42;2.83;;;;;;;25.59;29.35;101736.13;4970287;28;20053;-64
2021/05/30 11:19:08;;;;;;;5.97;3.03;;;;;;;25.44;29.02;101736.91;4987528;28;20027;-63
2021/05/30 11:21:42;;;;;;;3.95;2.13;;;;;;;25.02;29.09;101746.94;4987502;28;20030;-63
2021/05/30 11:24:10;;;;;;;5.20;2.55;;;;;;;24.40;28.91;101743.56;4987891;28;20034;-63
2021/05/30 11:26:36;;;;;;;4.78;2.50;;;;;;;23.96;29.91;101741.97;4987717;28;20023;-62
2021/05/30 11:29:05;;;;;;;4.55;2.90;;;;;;;23.70;31.46;101742.16;4987494;28;20054;-61
2021/05/30 11:31:32;;;;;;;4.38;3.03;;;;;;;23.31;33.55;101751.69;4987726;28;20079;-62